Terminal Aerodrome Forecast
Issued by NWS Miami, FL

Home | Current Version | Previous Version | Text Only | Print | Product List | Glossary On
Versions: 1 2 3 4 5 6 7 8 9 10 11 12 13 14 15 16 17 18 19 20 21 22 23 24 25 26 27 28 29
000
FTUS42 KMFL 052327
TAFPBI
TAF
KPBI 052327Z 0600/0624 29012G18KT P6SM SCT050
     FM060200 12005KT P6SM SKC
     FM061400 31010KT P6SM SKC
     FM061700 31015G22KT P6SM SKC=

USA.gov is the U.S. government's official web portal to all federal, state and local government web resources and services.